NCAR-RAP Real-Time Weather Data

Output produced by METARs form (10 April 2020  05:07 UTC)
found at http://weather.rap.ucar.edu/surface/
 
KGGG 100453Z AUTO 00000KT 10SM SCT120 18/ A2996 RMK AO2 SLP142 T0178 $
KGGG 100353Z AUTO 00000KT 10SM SCT110 18/ A2995 RMK AO2 SLP136 T0178 $
KGGG 100253Z AUTO 11004KT 10SM CLR 18/ A2992 RMK AO2 SLP128 60000 T0178 53024 $
KGGG 100153Z 05004KT 10SM CLR 18/ A2989 RMK AO2 RAB02E15 SLP119 P0000 T0178 $
KGGG 100053Z 04003KT 10SM SCT090 BKN110 19/ A2987 RMK AO2 RAB01E51 SLP111 P0000 T0189 $
KGGG 092353Z 36003KT 10SM SCT120 20/ A2985 RMK AO2 LTG DSNT SE SLP105 60000 T0200 10267 20194 50001 $
KGGG 092253Z 36003KT 10SM FEW033 FEW042 BKN110 20/11 A2987 RMK AO2 RAE42 SLP109 P0000 T02000111 $
KGGG 092153Z 02006KT 10SM -RA SCT031 BKN110 22/11 A2986 RMK AO2 RAB49 SLP105 P0000 T02170106
KGGG 092053Z 05007KT 10SM OVC030 24/14 A2985 RMK AO2 SLP102 T02390144 56012
KGGG 091953Z 05009KT 10SM BKN033 25/16 A2985 RMK AO2 SLP103 T02500161
KGGG 091853Z 06011KT 10SM BKN034 26/18 A2986 RMK AO2 SLP107 T02610178
KGGG 091753Z 06011KT 10SM BKN031 26/18 A2988 RMK AO2 SLP113 T02610183 10267 20211 58000
KGGG 091653Z 06009KT 10SM CLR 26/18 A2989 RMK AO2 SLP116 T02610183
KGGG 091553Z 07009KT 10SM CLR 26/18 A2990 RMK AO2 SLP118 T02560178
KGGG 091453Z 09014G20KT 10SM CLR 25/17 A2988 RMK AO2 SLP114 T02500172 53013
KGGG 091353Z 09011KT 10SM CLR 23/19 A2987 RMK AO2 SLP110 T02330189
KGGG 091253Z 04006KT 10SM CLR 23/20 A2985 RMK AO2 SLP103 T02280200
KGGG 091217Z 00000KT 4SM BR SCT012 21/21 A2985 RMK AO2 T02110206
KGGG 091204Z 00000KT 8SM BKN013 BKN018 21/20 A2985 RMK AO2 T02110200
KGGG 091153Z 00000KT 4SM BR BKN015 22/21 A2985 RMK AO2 SLP100 T02170206 10244 20206 53018
KGGG 091141Z 00000KT 10SM OVC015 22/21 A2985 RMK AO2 T02170211
KGGG 091129Z 00000KT 10SM OVC013 22/21 A2984 RMK AO2 T02170206
KGGG 091106Z 16003KT 9SM BKN017 21/20 A2982 RMK AO2 T02110200
KGGG 091053Z 00000KT 2 1/2SM BR BKN019 21/20 A2982 RMK AO2 SLP092 T02110200
KGGG 091019Z AUTO 00000KT 10SM SCT018 23/21 A2981 RMK AO2 T02280211
KGGG 090953Z AUTO 26004KT 10SM SCT011 BKN018 23/22 A2981 RMK AO2 SLP089 T02280217
KGGG 090934Z AUTO VRB03KT 10SM FEW009 23/22 A2980 RMK AO2 T02330217
KGGG 090853Z AUTO 21005KT 10SM CLR 23/22 A2979 RMK AO2 SLP082 T02280217 58007
KGGG 090753Z AUTO 23006KT 10SM CLR 24/22 A2979 RMK AO2 SLP082 T02390217
KGGG 090653Z AUTO 22009KT 10SM CLR 24/22 A2981 RMK AO2 SLP089 T02440217